Time;durP1;ratioP1;P1;durP2;ratioP2;P2;SDS_P1;SDS_P2;PMS_P1;PMS_P2;Temp;Humidity;BMP_temperature;BMP_pressure;BME280_temperature;BME280_humidity;BME280_pressure;Samples;Min_cycle;Max_cycle;Signal;HPM_P1;HPM_P2
2021/05/29 00:01:13;;;;;;;0.18;0.18;;;;;;;13.13;52.78;98537.34;128424;1107;116194;-79
2021/05/29 00:03:39;;;;;;;0.10;0.10;;;;;;;13.11;52.29;98543.05;128460;1108;115814;-79
2021/05/29 00:06:05;;;;;;;0.13;0.13;;;;;;;13.05;53.57;98530.84;128494;1108;116172;-79
2021/05/29 00:08:32;;;;;;;0.18;0.18;;;;;;;13.03;52.83;98533.84;129362;1108;23064;-79
2021/05/29 00:11:00;;;;;;;0.10;0.10;;;;;;;13.01;52.95;98525.28;128463;1108;115777;-78
2021/05/29 00:13:28;;;;;;;0.18;0.18;;;;;;;13.00;53.34;98525.58;128526;1108;115637;-78
2021/05/29 00:15:55;;;;;;;0.10;0.10;;;;;;;12.98;53.79;98519.72;127785;1108;116259;-78
2021/05/29 00:18:24;;;;;;;0.10;0.10;;;;;;;12.95;53.47;98510.33;128497;1108;115521;-79
2021/05/29 00:20:51;;;;;;;0.10;0.10;;;;;;;12.94;53.42;98516.08;128478;1108;116500;-79
2021/05/29 00:23:18;;;;;;;0.20;0.20;;;;;;;12.95;53.42;98515.73;129358;1107;22601;-79
2021/05/29 00:25:44;;;;;;;0.10;0.10;;;;;;;12.96;53.23;98513.83;128507;1108;116383;-79
2021/05/29 00:28:13;;;;;;;0.15;0.15;;;;;;;12.95;54.37;98513.03;128486;1107;116034;-79
2021/05/29 00:30:40;;;;;;;0.10;0.10;;;;;;;12.94;54.05;98503.34;128500;1108;115770;-79
2021/05/29 00:33:07;;;;;;;0.20;0.20;;;;;;;12.96;53.96;98506.51;128471;1107;116262;-79
2021/05/29 00:35:33;;;;;;;0.20;0.20;;;;;;;12.96;53.93;98506.51;129288;1108;22523;-78
2021/05/29 00:38:00;;;;;;;0.20;0.20;;;;;;;12.97;53.54;98501.92;128509;1108;115336;-78
2021/05/29 00:40:26;;;;;;;0.10;0.10;;;;;;;12.97;54.57;98499.22;128467;1108;115913;-78
2021/05/29 00:42:53;;;;;;;0.10;0.10;;;;;;;12.97;54.81;98497.30;128504;1108;115796;-78
2021/05/29 00:45:19;;;;;;;0.10;0.10;;;;;;;12.98;54.87;98503.50;128480;1108;116067;-78
2021/05/29 00:47:45;;;;;;;0.20;0.20;;;;;;;12.98;54.79;98506.20;128711;1108;116430;-78
2021/05/29 00:50:13;;;;;;;0.10;0.10;;;;;;;12.98;54.91;98506.20;129211;1107;118994;-78
2021/05/29 00:52:39;;;;;;;0.20;0.20;;;;;;;12.99;54.82;98507.78;128515;1108;116083;-78
2021/05/29 00:55:11;;;;;;;0.20;0.20;;;;;;;12.97;54.61;98497.30;128481;1108;115773;-78
2021/05/29 00:57:40;;;;;;;0.10;0.10;;;;;;;12.97;54.41;98499.22;128466;1108;116072;-78
2021/05/29 01:00:08;;;;;;;0.10;0.10;;;;;;;12.96;54.03;98501.10;128473;1108;116858;-79
2021/05/29 01:02:34;;;;;;;0.30;0.20;;;;;;;12.98;54.43;98493.48;129294;1108;22587;-78
2021/05/29 01:05:00;;;;;;;0.20;0.20;;;;;;;12.98;54.85;98501.59;128453;1108;115015;-78
2021/05/29 01:07:26;;;;;;;0.10;0.10;;;;;;;12.99;54.72;98495.06;128479;1108;116383;-78
2021/05/29 01:09:52;;;;;;;0.10;0.10;;;;;;;12.99;54.83;98488.86;128476;1108;115425;-78
2021/05/29 01:12:18;;;;;;;0.10;0.10;;;;;;;13.00;54.49;98495.85;128518;1108;115868;-79
2021/05/29 01:14:52;;;;;;;0.10;0.10;;;;;;;13.01;54.32;98492.84;128784;1108;115793;-79
2021/05/29 01:17:18;;;;;;;0.10;0.10;;;;;;;13.02;54.26;98490.93;129296;1107;22528;-79
2021/05/29 01:19:44;;;;;;;0.10;0.10;;;;;;;13.03;54.45;98484.40;128445;1108;116113;-78
2021/05/29 01:22:11;;;;;;;0.15;0.15;;;;;;;13.03;54.10;98490.59;128498;1107;115811;-78
2021/05/29 01:24:39;;;;;;;0.20;0.20;;;;;;;13.03;54.56;98490.59;128477;1108;116620;-78
2021/05/29 01:27:06;;;;;;;0.15;0.15;;;;;;;13.03;54.64;98490.59;128497;1107;116227;-78
2021/05/29 01:29:34;;;;;;;0.20;0.20;;;;;;;13.02;54.22;98480.91;129296;1107;22699;-78
2021/05/29 01:32:07;;;;;;;0.20;0.20;;;;;;;13.03;54.85;98487.89;128478;1108;116120;-78
2021/05/29 01:34:36;;;;;;;0.20;0.20;;;;;;;13.02;54.31;98490.93;128497;1107;115903;-78
2021/05/29 01:37:04;;;;;;;0.10;0.10;;;;;;;13.01;54.34;98487.44;128476;1107;115972;-78
2021/05/29 01:39:31;;;;;;;0.10;0.10;;;;;;;13.01;54.56;98494.76;128481;1108;117297;-78
2021/05/29 01:41:58;;;;;;;0.10;0.10;;;;;;;13.01;54.90;98489.35;128475;1107;116110;-78
2021/05/29 01:44:26;;;;;;;0.20;0.20;;;;;;;13.00;55.50;98488.53;129311;1107;22581;-79
2021/05/29 01:46:53;;;;;;;0.20;0.20;;;;;;;12.99;55.02;98486.16;128441;1108;115541;-79
2021/05/29 01:49:20;;;;;;;0.10;0.10;;;;;;;12.98;55.09;98476.47;128472;1108;115604;-79
2021/05/29 01:51:46;;;;;;;0.10;0.10;;;;;;;12.96;54.84;98482.19;128521;1108;115974;-79
2021/05/29 01:54:16;;;;;;;0.10;0.10;;;;;;;12.97;54.31;98489.20;128537;1108;116339;-79
2021/05/29 01:56:43;;;;;;;0.10;0.10;;;;;;;12.96;54.84;98479.48;129296;1107;22645;-79
2021/05/29 01:59:10;;;;;;;0.18;0.18;;;;;;;12.96;54.95;98481.39;129290;1108;22562;-79
2021/05/29 02:01:36;;;;;;;0.10;0.10;;;;;;;12.94;55.63;98479.02;128468;1108;116237;-79
2021/05/29 02:04:03;;;;;;;0.20;0.20;;;;;;;12.93;55.00;98479.33;128515;1108;116148;-79
2021/05/29 02:06:30;;;;;;;0.20;0.20;;;;;;;12.91;55.04;98471.55;128446;1107;115542;-79
2021/05/29 02:08:56;;;;;;;0.17;0.17;;;;;;;12.91;54.85;98470.77;128477;1108;116133;-79
2021/05/29 02:11:22;;;;;;;0.10;0.10;;;;;;;12.89;55.04;98473.80;129336;1107;23071;-79
2021/05/29 02:13:48;;;;;;;0.20;0.20;;;;;;;12.88;55.04;98464.08;128519;1107;115555;-79
2021/05/29 02:16:14;;;;;;;0.20;0.20;;;;;;;12.87;55.66;98478.72;128473;1108;115326;-79
2021/05/29 02:18:41;;;;;;;0.20;0.20;;;;;;;12.85;55.00;98459.34;128453;1108;115869;-78
2021/05/29 02:21:10;;;;;;;0.20;0.20;;;;;;;12.84;55.68;98465.84;128509;1107;116956;-78
2021/05/29 02:23:49;;;;;;;0.10;0.10;;;;;;;12.83;55.64;98468.88;129332;1108;22578;-78
2021/05/29 02:26:18;;;;;;;0.10;0.10;;;;;;;12.81;55.64;98465.69;129361;1108;22995;-79
2021/05/29 02:28:49;;;;;;;0.10;0.10;;;;;;;12.78;55.56;98462.53;128483;1108;115968;-79
2021/05/29 02:31:16;;;;;;;0.20;0.20;;;;;;;12.79;55.91;98457.91;128453;1108;115984;-78
2021/05/29 02:33:43;;;;;;;0.20;0.20;;;;;;;12.77;55.07;98452.02;128464;1107;115879;-78
2021/05/29 02:36:10;;;;;;;0.10;0.10;;;;;;;12.77;55.43;98457.43;128553;1107;116435;-78
2021/05/29 02:38:38;;;;;;;0.10;0.10;;;;;;;12.77;55.44;98465.53;129291;1108;23046;-78
2021/05/29 02:41:09;;;;;;;0.10;0.10;;;;;;;12.76;55.05;98461.25;128493;1108;115900;-78
2021/05/29 02:43:35;;;;;;;0.10;0.10;;;;;;;12.74;55.55;98458.09;128480;1107;115765;-78
2021/05/29 02:46:01;;;;;;;0.10;0.10;;;;;;;12.74;54.89;98456.19;128457;1108;115934;-78
2021/05/29 02:48:27;;;;;;;0.23;0.23;;;;;;;12.74;54.78;98452.69;128469;1108;116439;-78
2021/05/29 02:50:53;;;;;;;0.10;0.10;;;;;;;12.74;55.30;98458.09;128445;1108;115786;-78
2021/05/29 02:53:19;;;;;;;0.20;0.20;;;;;;;12.73;55.84;98445.67;129364;1108;22660;-78
2021/05/29 02:55:46;;;;;;;0.10;0.10;;;;;;;12.72;55.23;98454.91;128452;1108;115772;-78
2021/05/29 02:58:13;;;;;;;0.20;0.20;;;;;;;12.72;55.49;98449.50;128517;1107;116184;-78
2021/05/29 03:00:43;;;;;;;0.10;0.10;;;;;;;12.72;55.18;98450.29;128476;1108;115757;-78
2021/05/29 03:03:09;;;;;;;0.10;0.10;;;;;;;12.72;56.00;98455.70;128465;1107;116081;-78
2021/05/29 03:05:38;;;;;;;0.18;0.18;;;;;;;12.72;55.46;98444.89;129346;1107;23275;-78
2021/05/29 03:08:05;;;;;;;0.20;0.20;;;;;;;12.73;54.86;98454.60;128462;1108;115103;-78
2021/05/29 03:10:32;;;;;;;0.20;0.20;;;;;;;12.75;55.58;98452.36;128492;1108;115993;-78
2021/05/29 03:12:59;;;;;;;0.18;0.18;;;;;;;12.75;55.47;98457.76;128470;1108;115963;-78
2021/05/29 03:15:27;;;;;;;0.10;0.10;;;;;;;12.75;56.79;98463.16;128489;1108;116388;-78
2021/05/29 03:17:54;;;;;;;0.20;0.20;;;;;;;12.76;55.76;98464.74;128462;1107;116291;-78
2021/05/29 03:20:28;;;;;;;0.13;0.13;;;;;;;12.75;55.47;98455.06;129298;1108;22552;-78
2021/05/29 03:22:55;;;;;;;0.10;0.10;;;;;;;12.77;55.94;98452.84;128419;1108;115852;-78
2021/05/29 03:25:21;;;;;;;0.10;0.10;;;;;;;12.78;56.11;98453.64;128453;1108;116202;-78
2021/05/29 03:27:49;;;;;;;0.15;0.15;;;;;;;12.78;57.09;98449.02;128472;1108;116499;-78
2021/05/29 03:30:18;;;;;;;0.10;0.10;;;;;;;12.77;56.13;98444.73;128505;1108;115946;-78
2021/05/29 03:32:45;;;;;;;0.20;0.20;;;;;;;12.78;55.64;98449.02;129071;1108;115886;-78
2021/05/29 03:35:13;;;;;;;0.10;0.10;;;;;;;12.82;55.60;98445.68;129088;1108;120505;-78
2021/05/29 03:37:39;;;;;;;0.10;0.10;;;;;;;12.84;56.43;98440.73;128460;1107;115958;-79
2021/05/29 03:40:07;;;;;;;0.20;0.20;;;;;;;12.85;56.09;98453.94;128458;1108;115312;-78
2021/05/29 03:42:33;;;;;;;0.18;0.18;;;;;;;12.87;56.33;98445.50;128473;1108;116433;-78
2021/05/29 03:45:00;;;;;;;0.20;0.20;;;;;;;12.87;57.56;98454.40;128461;1108;116474;-78
2021/05/29 03:47:26;;;;;;;0.10;0.10;;;;;;;12.88;56.78;98453.27;129306;1108;22555;-78
2021/05/29 03:49:52;;;;;;;0.20;0.20;;;;;;;12.90;55.79;98463.78;128528;1108;116143;-78
2021/05/29 03:52:18;;;;;;;0.20;0.20;;;;;;;12.91;56.15;98463.45;128506;1108;115980;-78
2021/05/29 03:54:44;;;;;;;0.20;0.20;;;;;;;12.89;56.66;98470.28;128486;1108;116267;-78
2021/05/29 03:57:10;;;;;;;0.10;0.10;;;;;;;12.86;56.60;98468.24;128515;1108;116878;-78
2021/05/29 03:59:36;;;;;;;0.10;0.10;;;;;;;12.78;57.11;98486.06;129335;1108;23431;-78
2021/05/29 04:02:02;;;;;;;0.20;0.20;;;;;;;12.74;57.41;98477.80;128505;1107;115929;-78
2021/05/29 04:04:28;;;;;;;0.20;0.20;;;;;;;12.73;56.85;98486.20;128483;1108;115832;-78
2021/05/29 04:06:55;;;;;;;0.25;0.25;;;;;;;12.69;57.49;98482.55;128504;1108;115410;-78
2021/05/29 04:09:21;;;;;;;0.10;0.10;;;;;;;12.70;57.77;98478.77;128487;1108;116020;-78
2021/05/29 04:11:47;;;;;;;0.10;0.10;;;;;;;12.73;57.95;98487.02;128496;1108;115730;-78
2021/05/29 04:14:14;;;;;;;0.30;0.23;;;;;;;12.82;58.38;98484.30;129327;1108;22617;-78
2021/05/29 04:16:40;;;;;;;0.28;0.28;;;;;;;12.90;58.64;98479.99;128451;1107;115663;-78
2021/05/29 04:19:06;;;;;;;0.20;0.20;;;;;;;13.00;59.16;98475.02;128443;1108;116128;-78
2021/05/29 04:21:32;;;;;;;0.20;0.20;;;;;;;13.11;59.15;98474.68;128468;1108;115915;-78
2021/05/29 04:23:58;;;;;;;0.20;0.20;;;;;;;13.17;58.79;98482.30;128447;1108;115768;-78
2021/05/29 04:26:24;;;;;;;0.20;0.20;;;;;;;13.23;58.16;98483.73;129289;1108;22568;-78
2021/05/29 04:28:51;;;;;;;0.20;0.20;;;;;;;13.28;57.36;98488.16;128455;1107;115975;-78
2021/05/29 04:31:18;;;;;;;0.20;0.20;;;;;;;13.33;57.65;98498.03;128507;1108;116130;-78
2021/05/29 04:33:44;;;;;;;0.20;0.20;;;;;;;13.38;57.35;98492.43;128490;1108;115803;-79
2021/05/29 04:36:10;;;;;;;0.20;0.20;;;;;;;13.41;58.47;98492.58;128492;1108;115853;-79
2021/05/29 04:38:37;;;;;;;0.18;0.18;;;;;;;13.43;57.64;98493.03;129316;1108;22550;-79
2021/05/29 04:41:03;;;;;;;0.23;0.23;;;;;;;13.47;57.40;98499.38;128490;1108;115359;-79
2021/05/29 04:43:29;;;;;;;0.28;0.28;;;;;;;13.47;56.67;98496.67;128498;1108;116286;-79
2021/05/29 04:45:55;;;;;;;0.10;0.10;;;;;;;13.49;57.55;98491.75;128444;1107;115621;-78
2021/05/29 04:48:21;;;;;;;0.30;0.30;;;;;;;13.50;57.48;98493.33;128474;1108;116030;-78
2021/05/29 04:51:29;;;;;;;0.20;0.20;;;;;;;13.48;57.08;98502.91;128452;1108;115730;-78
2021/05/29 04:53:36;;;;;;;0.25;0.25;;;;;;;13.45;57.26;98496.22;129250;1108;22587;-78
2021/05/29 04:56:03;;;;;;;0.20;0.20;;;;;;;13.45;56.87;98484.61;128502;1108;116390;-78
2021/05/29 04:58:29;;;;;;;0.10;0.10;;;;;;;13.45;56.80;98496.22;128525;1108;116289;-78
2021/05/29 05:00:56;;;;;;;0.10;0.10;;;;;;;13.48;57.85;98487.46;128525;1107;115656;-78
2021/05/29 05:03:22;;;;;;;0.20;0.20;;;;;;;13.53;57.77;98488.39;128448;1108;116232;-78
2021/05/29 05:05:49;;;;;;;0.20;0.20;;;;;;;13.57;57.52;98497.45;128555;1108;116141;-78
2021/05/29 05:08:15;;;;;;;0.20;0.20;;;;;;;13.63;57.37;98485.30;129328;1108;22509;-78
2021/05/29 05:10:41;;;;;;;0.10;0.10;;;;;;;13.67;57.10;98480.83;128474;1108;116222;-78
2021/05/29 05:13:07;;;;;;;0.20;0.20;;;;;;;13.68;57.00;98493.26;128490;1108;115616;-78
2021/05/29 05:15:33;;;;;;;0.20;0.20;;;;;;;13.72;57.11;98491.48;128459;1108;115542;-78
2021/05/29 05:18:00;;;;;;;0.20;0.20;;;;;;;13.76;57.58;98489.71;128463;1108;115933;-78
2021/05/29 05:20:26;;;;;;;0.20;0.20;;;;;;;13.79;57.14;98480.13;129288;1108;22572;-78
2021/05/29 05:22:52;;;;;;;0.20;0.20;;;;;;;13.83;57.57;98481.05;128535;1108;115658;-78
2021/05/29 05:25:18;;;;;;;0.15;0.15;;;;;;;13.85;58.13;98474.20;128451;1108;115585;-78
2021/05/29 05:27:45;;;;;;;0.20;0.20;;;;;;;13.91;57.08;98472.08;128436;1108;116199;-78
2021/05/29 05:30:14;;;;;;;0.10;0.10;;;;;;;13.98;57.04;98483.98;128493;1108;116302;-79
2021/05/29 05:32:41;;;;;;;0.20;0.20;;;;;;;14.07;57.22;98485.83;129273;1108;22535;-78
2021/05/29 05:35:09;;;;;;;0.20;0.20;;;;;;;14.14;56.60;98489.61;128445;1107;114879;-78
2021/05/29 05:37:37;;;;;;;0.10;0.10;;;;;;;14.21;57.06;98473.63;128514;1107;115745;-78
2021/05/29 05:40:05;;;;;;;0.20;0.20;;;;;;;14.28;56.52;98488.57;128462;1108;115343;-80
2021/05/29 05:42:31;;;;;;;0.15;0.15;;;;;;;14.32;56.43;98490.28;128468;1108;115443;-79
2021/05/29 05:44:57;;;;;;;0.20;0.20;;;;;;;14.36;55.98;98487.70;128506;1108;116525;-78
2021/05/29 05:47:23;;;;;;;0.30;0.30;;;;;;;14.41;56.11;98480.16;129376;1108;23330;-79
2021/05/29 05:49:49;;;;;;;0.20;0.20;;;;;;;14.48;56.05;98477.71;128476;1108;114663;-78
2021/05/29 05:52:15;;;;;;;0.28;0.28;;;;;;;14.58;55.82;98479.27;128424;1108;116480;-79
2021/05/29 05:54:41;;;;;;;0.10;0.10;;;;;;;14.70;56.24;98478.52;128448;1108;115470;-79
2021/05/29 05:57:07;;;;;;;0.20;0.20;;;;;;;14.84;56.28;98475.50;128429;1108;116582;-79
2021/05/29 05:59:34;;;;;;;0.30;0.30;;;;;;;14.96;55.84;98483.66;129341;1108;22638;-79
2021/05/29 06:02:00;;;;;;;0.20;0.20;;;;;;;15.09;55.43;98473.63;128436;1107;116169;-79
2021/05/29 06:04:26;;;;;;;0.20;0.20;;;;;;;15.19;55.15;98478.63;128404;1108;115306;-79
2021/05/29 06:06:52;;;;;;;0.13;0.13;;;;;;;15.25;54.64;98482.72;128476;1108;115832;-79
2021/05/29 06:09:18;;;;;;;0.30;0.30;;;;;;;15.35;54.62;98479.55;128434;1108;116056;-79
2021/05/29 06:11:45;;;;;;;0.20;0.20;;;;;;;15.49;54.05;98481.16;128780;1107;116005;-78
2021/05/29 06:19:26;;;;;;;0.30;0.30;;;;;;;15.79;53.09;98485.23;128454;1108;115708;-78
2021/05/29 06:21:55;;;;;;;0.30;0.30;;;;;;;15.90;52.07;98491.00;128477;1108;115557;-79
2021/05/29 06:24:27;;;;;;;0.30;0.30;;;;;;;15.98;51.48;98487.37;127724;1108;116073;-78
2021/05/29 06:26:54;;;;;;;0.30;0.30;;;;;;;16.08;51.24;98494.27;128484;1108;116383;-78
2021/05/29 06:29:21;;;;;;;0.30;0.30;;;;;;;16.13;50.79;98489.38;129208;1108;23362;-78
2021/05/29 06:31:48;;;;;;;0.20;0.20;;;;;;;16.22;50.70;98497.39;128437;1108;115810;-78
2021/05/29 06:34:16;;;;;;;0.20;0.20;;;;;;;16.30;50.66;98495.67;128452;1108;116142;-78
2021/05/29 06:36:42;;;;;;;0.20;0.20;;;;;;;16.37;50.38;98501.33;128440;1108;116157;-78
2021/05/29 06:39:08;;;;;;;0.35;0.35;;;;;;;16.45;50.24;98495.75;128417;1107;116495;-78
2021/05/29 06:41:36;;;;;;;0.40;0.40;;;;;;;16.55;50.60;98502.64;129249;1107;22545;-78
2021/05/29 06:44:03;;;;;;;0.30;0.30;;;;;;;16.63;50.16;98507.13;128528;1108;116301;-78
2021/05/29 06:46:29;;;;;;;0.30;0.30;;;;;;;16.69;50.06;98503.02;128480;1107;115678;-78
2021/05/29 06:48:56;;;;;;;0.30;0.30;;;;;;;16.77;49.93;98503.25;128422;1108;117029;-78
2021/05/29 06:51:53;;;;;;;0.30;0.30;;;;;;;16.85;49.75;98502.30;128410;1107;115677;-78
2021/05/29 06:59:53;;;;;;;0.20;0.20;;;;;;;17.12;49.34;98501.47;127746;1108;115694;-79
2021/05/29 07:02:19;;;;;;;0.30;0.30;;;;;;;17.11;48.39;98510.78;129276;1108;23308;-78
2021/05/29 07:04:45;;;;;;;0.20;0.20;;;;;;;17.15;49.26;98510.88;128484;1108;115876;-78
2021/05/29 07:07:11;;;;;;;0.20;0.20;;;;;;;17.05;49.06;98508.66;128526;1108;116040;-78
2021/05/29 07:09:37;;;;;;;0.30;0.30;;;;;;;16.97;49.56;98515.05;128521;1108;115864;-78
2021/05/29 07:12:04;;;;;;;0.20;0.20;;;;;;;16.93;49.77;98512.23;128498;1108;115582;-78
2021/05/29 07:14:30;;;;;;;0.30;0.30;;;;;;;16.87;49.97;98513.64;129306;1108;22514;-78
2021/05/29 07:16:56;;;;;;;0.30;0.30;;;;;;;16.79;49.88;98514.58;128498;1108;115251;-78
2021/05/29 07:19:24;;;;;;;0.30;0.30;;;;;;;16.81;50.45;98515.02;128493;1107;115323;-78
2021/05/29 07:21:51;;;;;;;0.30;0.30;;;;;;;16.81;50.70;98525.89;128404;1107;116373;-78
2021/05/29 07:24:18;;;;;;;0.30;0.30;;;;;;;16.77;50.76;98525.00;128504;1108;116093;-78
2021/05/29 07:26:45;;;;;;;0.28;0.28;;;;;;;16.76;50.92;98520.70;128822;1108;115708;-78
2021/05/29 07:29:11;;;;;;;0.23;0.23;;;;;;;16.79;50.82;98514.58;129338;1108;22571;-78
2021/05/29 07:31:38;;;;;;;0.33;0.33;;;;;;;16.75;51.21;98521.85;128563;1108;115917;-79
2021/05/29 07:34:04;;;;;;;0.40;0.40;;;;;;;16.80;50.78;98524.31;128516;1107;115792;-79
2021/05/29 07:36:30;;;;;;;0.30;0.30;;;;;;;16.91;50.88;98518.03;128484;1108;115229;-79
2021/05/29 07:38:57;;;;;;;0.40;0.40;;;;;;;16.99;51.04;98510.85;128537;1108;115462;-79
2021/05/29 07:41:23;;;;;;;0.30;0.30;;;;;;;17.11;50.88;98510.00;129336;1108;23929;-79
2021/05/29 07:43:50;;;;;;;0.40;0.40;;;;;;;17.21;50.58;98517.63;128518;1108;115497;-79
2021/05/29 07:46:17;;;;;;;0.30;0.30;;;;;;;17.28;50.33;98514.31;128488;1108;116277;-78
2021/05/29 07:48:44;;;;;;;0.40;0.40;;;;;;;17.37;50.48;98513.02;128440;1108;115938;-78
2021/05/29 07:51:11;;;;;;;0.30;0.30;;;;;;;17.47;50.02;98517.13;128537;1107;116780;-78
2021/05/29 07:53:41;;;;;;;0.43;0.30;;;;;;;17.53;49.70;98504.84;129403;1108;22526;-79
2021/05/29 07:56:10;;;;;;;0.30;0.30;;;;;;;17.60;49.99;98505.00;128569;1108;116199;-79
2021/05/29 07:58:36;;;;;;;0.40;0.40;;;;;;;17.70;50.20;98506.41;128463;1108;115465;-79
2021/05/29 08:01:04;;;;;;;0.30;0.30;;;;;;;17.81;49.70;98506.70;128548;1108;116406;-79
2021/05/29 08:03:30;;;;;;;0.33;0.33;;;;;;;17.86;49.48;98507.20;128543;1108;116245;-79
2021/05/29 08:05:56;;;;;;;0.30;0.30;;;;;;;17.87;49.11;98500.61;128482;1107;116055;-79
2021/05/29 08:08:26;;;;;;;0.45;0.45;;;;;;;17.89;48.53;98503.00;129417;1108;22551;-78
2021/05/29 08:10:54;;;;;;;0.30;0.30;;;;;;;17.96;48.55;98505.08;128509;1108;115858;-78
2021/05/29 08:13:20;;;;;;;0.38;0.38;;;;;;;18.03;48.35;98503.30;128497;1108;115889;-78
2021/05/29 08:15:48;;;;;;;0.30;0.30;;;;;;;18.11;48.51;98502.31;128488;1108;115870;-79
2021/05/29 08:18:16;;;;;;;0.30;0.30;;;;;;;18.19;48.10;98497.02;128499;1108;116350;-79
2021/05/29 08:20:52;;;;;;;0.30;0.30;;;;;;;18.24;48.05;98494.03;129374;1108;22566;-79
2021/05/29 08:23:18;;;;;;;0.30;0.30;;;;;;;18.16;47.72;98498.55;129375;1107;22614;-79
2021/05/29 08:25:46;;;;;;;0.30;0.30;;;;;;;18.22;47.40;98493.59;128566;1108;116109;-79
2021/05/29 08:28:12;;;;;;;0.30;0.30;;;;;;;18.28;47.36;98495.69;128509;1108;116245;-79
2021/05/29 08:30:38;;;;;;;0.30;0.30;;;;;;;18.30;47.32;98498.05;128511;1107;115359;-79
2021/05/29 08:33:06;;;;;;;0.40;0.40;;;;;;;18.39;47.37;98499.44;128553;1108;116242;-79
2021/05/29 08:35:32;;;;;;;0.30;0.30;;;;;;;18.50;47.19;98505.09;129394;1108;23040;-79
2021/05/29 08:37:59;;;;;;;0.30;0.30;;;;;;;18.57;46.95;98509.91;128527;1108;115500;-78
2021/05/29 08:40:25;;;;;;;0.33;0.33;;;;;;;18.66;46.83;98510.47;128574;1107;116119;-78
2021/05/29 08:42:51;;;;;;;0.40;0.40;;;;;;;18.74;46.49;98506.76;128511;1108;116706;-78
2021/05/29 08:45:19;;;;;;;0.30;0.30;;;;;;;18.85;46.34;98513.22;128564;1108;115799;-78
2021/05/29 08:47:47;;;;;;;0.23;0.23;;;;;;;18.97;46.56;98503.30;128486;1108;115442;-78
2021/05/29 08:50:14;;;;;;;0.20;0.20;;;;;;;19.13;45.92;98498.52;129337;1108;22648;-78
2021/05/29 08:52:41;;;;;;;0.30;0.30;;;;;;;19.26;45.80;98512.81;128518;1108;115687;-78
2021/05/29 08:55:12;;;;;;;0.30;0.30;;;;;;;19.41;45.74;98495.49;128487;1108;115560;-78
2021/05/29 08:57:39;;;;;;;0.20;0.20;;;;;;;19.48;44.38;98498.34;128457;1108;115404;-78
2021/05/29 09:00:24;;;;;;;0.38;0.38;;;;;;;19.69;44.87;98488.94;128530;1108;115405;-79
2021/05/29 09:03:19;;;;;;;0.40;0.40;;;;;;;19.80;44.35;98492.63;128514;1108;115259;-79
2021/05/29 09:05:52;;;;;;;0.30;0.30;;;;;;;19.91;43.44;98493.58;128325;1108;115782;-79
2021/05/29 09:08:23;;;;;;;0.38;0.38;;;;;;;19.94;44.06;98483.87;129345;1108;22508;-79
2021/05/29 09:10:55;;;;;;;0.30;0.30;;;;;;;20.04;44.01;98488.69;128429;1108;115258;-80
2021/05/29 09:13:29;;;;;;;0.50;0.50;;;;;;;20.02;43.06;98493.75;128496;1108;115663;-79
2021/05/29 09:16:00;;;;;;;0.40;0.40;;;;;;;19.98;42.98;98496.42;128496;1107;116135;-82
2021/05/29 09:18:52;;;;;;;0.60;0.60;;;;;;;19.88;42.05;98482.59;128521;1108;115924;-81
2021/05/29 09:21:33;;;;;;;0.50;0.50;;;;;;;19.90;42.27;98488.50;128487;1107;115924;-81
2021/05/29 09:24:11;;;;;;;0.40;0.40;;;;;;;20.04;41.82;98486.77;128511;1108;115980;-80
2021/05/29 09:26:53;;;;;;;0.38;0.38;;;;;;;20.09;41.35;98497.38;129327;1108;22586;-79
2021/05/29 09:29:31;;;;;;;0.50;0.50;;;;;;;20.08;40.89;98500.45;129308;1108;22541;-78
2021/05/29 09:32:01;;;;;;;0.40;0.40;;;;;;;20.10;41.06;98503.62;128487;1108;115875;-79
2021/05/29 09:34:53;;;;;;;0.50;0.50;;;;;;;20.15;41.21;98486.11;128527;1107;116064;-79
2021/05/29 09:37:26;;;;;;;0.48;0.48;;;;;;;20.34;41.37;98500.43;128468;1107;117029;-79
2021/05/29 09:40:01;;;;;;;0.30;0.30;;;;;;;20.42;41.22;98498.58;128528;1107;115666;-79
2021/05/29 09:42:29;;;;;;;0.50;0.50;;;;;;;20.56;41.18;98492.53;128512;1108;116414;-79
2021/05/29 09:44:56;;;;;;;0.50;0.50;;;;;;;20.67;41.09;98496.19;127787;1108;115721;-79
2021/05/29 09:47:26;;;;;;;0.50;0.50;;;;;;;20.73;40.70;98491.95;129317;1108;22587;-80
2021/05/29 09:49:57;;;;;;;0.50;0.50;;;;;;;20.80;40.20;98491.25;128455;1107;115640;-80
2021/05/29 09:52:36;;;;;;;0.48;0.48;;;;;;;20.78;39.39;98494.34;128392;1108;116159;-80
2021/05/29 09:55:11;;;;;;;0.30;0.30;;;;;;;20.88;39.35;98494.85;128540;1108;115834;-80
2021/05/29 09:57:57;;;;;;;0.30;0.30;;;;;;;20.93;38.17;98489.03;128493;1107;116209;-80
2021/05/29 10:00:41;;;;;;;0.30;0.30;;;;;;;21.01;37.86;98482.47;128476;1107;116244;-80
2021/05/29 10:03:08;;;;;;;0.50;0.50;;;;;;;21.16;37.99;98497.09;128431;1108;116025;-80
2021/05/29 10:05:36;;;;;;;0.40;0.40;;;;;;;21.30;38.06;98489.80;129323;1108;23775;-80
2021/05/29 10:08:06;;;;;;;0.50;0.50;;;;;;;21.47;37.52;98482.92;128498;1108;115600;-80
2021/05/29 10:10:35;;;;;;;0.50;0.50;;;;;;;21.64;37.28;98480.70;128465;1107;115664;-80
2021/05/29 10:13:04;;;;;;;0.38;0.38;;;;;;;21.80;36.99;98476.50;128451;1108;115643;-80
2021/05/29 10:15:31;;;;;;;0.30;0.30;;;;;;;21.87;37.22;98486.73;128456;1107;115656;-80
2021/05/29 10:18:00;;;;;;;0.50;0.50;;;;;;;22.01;37.05;98492.33;128436;1108;115746;-80
2021/05/29 10:20:27;;;;;;;0.40;0.40;;;;;;;22.14;37.00;98487.33;129283;1108;22629;-80
2021/05/29 10:22:53;;;;;;;0.40;0.40;;;;;;;22.06;36.53;98480.20;128526;1108;116514;-80
2021/05/29 10:25:21;;;;;;;0.30;0.30;;;;;;;21.98;36.49;98486.81;128498;1108;116427;-80
2021/05/29 10:27:53;;;;;;;0.40;0.40;;;;;;;21.97;36.32;98496.22;128519;1108;115781;-79
2021/05/29 10:30:21;;;;;;;0.30;0.30;;;;;;;21.95;36.30;98498.54;128416;1108;116257;-79
2021/05/29 10:33:23;;;;;;;0.53;0.53;;;;;;;22.04;36.12;98494.28;128428;1108;115797;-79
2021/05/29 10:35:50;;;;;;;0.40;0.40;;;;;;;22.16;36.26;98487.72;127615;1111;116270;-80
2021/05/29 10:38:17;;;;;;;0.50;0.50;;;;;;;22.19;35.88;98473.24;129071;1107;22571;-79
2021/05/29 10:40:49;;;;;;;0.40;0.40;;;;;;;22.08;36.10;98488.03;128495;1108;115778;-79
2021/05/29 10:43:20;;;;;;;0.50;0.50;;;;;;;22.18;35.74;98482.65;128465;1108;115446;-80
2021/05/29 10:46:13;;;;;;;0.50;0.50;;;;;;;22.28;35.59;98479.19;128494;1108;115459;-79
2021/05/29 10:48:50;;;;;;;0.40;0.40;;;;;;;22.45;35.32;98480.43;128504;1108;115626;-79
2021/05/29 10:51:18;;;;;;;0.53;0.53;;;;;;;22.65;34.64;98480.11;128486;1108;116270;-79
2021/05/29 10:53:55;;;;;;;0.50;0.50;;;;;;;22.74;34.53;98486.80;129022;1108;115991;-79
2021/05/29 10:56:26;;;;;;;0.50;0.50;;;;;;;22.72;33.72;98486.41;129257;1107;120136;-79
2021/05/29 10:59:13;;;;;;;0.40;0.40;;;;;;;22.72;33.65;98474.66;128513;1108;115748;-79
2021/05/29 11:01:43;;;;;;;0.50;0.50;;;;;;;22.77;33.29;98480.54;128523;1107;115791;-79
2021/05/29 11:04:14;;;;;;;0.40;0.40;;;;;;;22.73;33.66;98471.51;128497;1108;115302;-79
2021/05/29 11:06:43;;;;;;;0.50;0.50;;;;;;;22.81;33.62;98469.56;128531;1108;117101;-79
2021/05/29 11:09:10;;;;;;;0.60;0.60;;;;;;;22.94;33.75;98475.50;128434;1108;115979;-79
2021/05/29 11:11:46;;;;;;;0.45;0.45;;;;;;;23.13;33.57;98466.91;129288;1108;22987;-79
2021/05/29 11:14:30;;;;;;;0.40;0.40;;;;;;;23.28;32.89;98462.22;129373;1108;22551;-79
2021/05/29 11:17:09;;;;;;;0.50;0.50;;;;;;;23.43;32.43;98460.27;128459;1108;116706;-79
2021/05/29 11:19:37;;;;;;;;;;;;;;;23.43;31.30;98465.77;128516;1108;115779;-79
2021/05/29 11:22:22;;;;;;;0.33;0.33;;;;;;;23.35;31.83;98464.98;128569;1108;102531;-81
2021/05/29 11:24:59;;;;;;;0.50;0.50;;;;;;;23.32;31.63;98460.25;128399;1108;115947;-80
2021/05/29 11:27:34;;;;;;;0.30;0.30;;;;;;;23.33;31.72;98455.55;128503;1108;115410;-80
2021/05/29 11:30:10;;;;;;;0.50;0.50;;;;;;;23.23;32.06;98457.91;128499;1108;116351;-80
2021/05/29 11:33:12;;;;;;;0.50;0.50;;;;;;;23.19;32.38;98454.37;129300;1108;22532;-80
2021/05/29 11:35:46;;;;;;;0.60;0.60;;;;;;;23.33;30.89;98453.58;128474;1111;22532;-79
2021/05/29 11:38:23;;;;;;;0.40;0.40;;;;;;;23.41;31.37;98457.11;129204;1108;22549;-79